createdAt,value
2023-05-12T11:18:20.590Z,433.2500
2023-05-12T11:19:22.366Z,475.9231
2023-05-12T11:20:24.322Z,591.0000
2023-05-12T11:21:26.224Z,638.2308
2023-05-12T11:22:28.253Z,626.3077
2023-05-12T11:46:50.653Z,699.4167
2023-05-12T11:47:52.566Z,668.2308
2023-05-12T11:48:54.447Z,660.6923
2023-05-12T11:49:56.424Z,656.0000
2023-05-12T11:50:58.289Z,654.0769
2023-05-12T11:52:00.190Z,653.6923
2023-05-12T11:53:02.129Z,656.5385
2023-05-12T11:54:04.041Z,663.9231
2023-05-12T11:55:06.189Z,667.0769
2023-05-12T11:56:07.897Z,670.8461
2023-05-12T11:57:09.800Z,675.1539
2023-05-12T11:58:11.725Z,678.0000
2023-05-12T11:59:13.655Z,681.0769
2023-05-12T12:00:15.574Z,685.6923
2023-05-12T12:01:17.600Z,690.2308
2023-05-12T12:02:19.466Z,689.0000
2023-05-12T12:03:21.481Z,691.4615
2023-05-12T12:04:23.285Z,697.6923
2023-05-12T12:05:25.177Z,705.0000
2023-05-12T12:06:27.159Z,707.6154
2023-05-12T12:07:29.000Z,710.2308
2023-05-12T12:08:30.941Z,712.3846
2023-05-12T12:09:32.850Z,710.6923
2023-05-12T12:10:34.751Z,707.0000
2023-05-12T12:11:36.667Z,704.8461
2023-05-12T12:12:38.752Z,707.3077
2023-05-12T12:13:40.506Z,708.6154
2023-05-12T12:14:42.467Z,707.6154
2023-05-12T12:15:44.376Z,705.0000
2023-05-12T12:16:46.270Z,710.0769
2023-05-12T12:17:48.475Z,713.7692
2023-05-12T12:18:50.139Z,712.6154
2023-05-12T12:19:52.020Z,711.5385
2023-05-12T12:20:53.951Z,713.1539
2023-05-12T12:21:55.866Z,719.4615
2023-05-12T12:22:57.782Z,726.2308
2023-05-12T12:23:59.808Z,723.8461
2023-05-12T12:25:01.605Z,717.9231
2023-05-12T12:26:03.544Z,714.8461
2023-05-12T12:27:05.454Z,716.3846
2023-05-12T12:28:07.369Z,722.3077
2023-05-12T12:29:09.291Z,726.3846
2023-05-12T12:30:11.433Z,728.5385
2023-05-12T12:31:13.113Z,726.9231
2023-05-12T12:32:15.056Z,732.9231
2023-05-12T12:33:19.649Z,734.1539
2023-05-12T12:34:18.868Z,729.1539
2023-05-12T12:35:21.019Z,724.6923
2023-05-12T12:36:22.846Z,720.0000
2023-05-12T12:37:24.634Z,717.9231
2023-05-12T12:38:26.546Z,717.0000
2023-05-12T12:39:28.480Z,714.6923
2023-05-12T12:40:30.392Z,716.2308
2023-05-12T12:41:32.305Z,703.6154
2023-05-12T12:42:34.369Z,692.6923
2023-05-12T12:43:36.144Z,687.9231
2023-05-12T12:44:38.064Z,684.1539
2023-05-12T12:45:39.996Z,683.4615
2023-05-12T12:46:41.957Z,682.1539
2023-05-12T12:47:43.869Z,684.3846
2023-05-12T12:48:45.860Z,683.9231
2023-05-12T12:49:47.665Z,679.9231
2023-05-12T12:50:49.592Z,673.7692
2023-05-12T12:51:51.510Z,665.2308
2023-05-12T12:52:53.440Z,660.8461
2023-05-12T12:53:55.349Z,658.2308
2023-05-12T12:54:57.365Z,652.4615
2023-05-12T12:55:59.173Z,650.0000
2023-05-12T12:57:01.105Z,643.0769
2023-05-12T12:58:03.011Z,639.6923
2023-05-12T12:59:04.947Z,636.5385
2023-05-12T13:00:06.970Z,634.5385
2023-05-12T13:01:08.808Z,637.2308
2023-05-12T13:02:10.723Z,639.8461
2023-05-12T13:03:12.638Z,639.7692
2023-05-12T13:04:14.519Z,642.0000
2023-05-12T13:05:16.515Z,642.0769
2023-05-12T13:06:18.474Z,640.3846
2023-05-12T13:07:20.275Z,634.8461
2023-05-12T13:08:22.204Z,634.4615
2023-05-12T13:09:24.122Z,634.2308
2023-05-12T13:10:26.048Z,631.3846
2023-05-12T13:11:28.068Z,628.2308
2023-05-12T13:12:29.873Z,629.0000
2023-05-12T13:13:31.781Z,632.8461
2023-05-12T13:14:33.706Z,631.0769
2023-05-12T13:15:35.621Z,629.3077
2023-05-12T13:16:37.557Z,627.6923
2023-05-12T13:17:39.588Z,623.9231
2023-05-12T13:18:41.425Z,620.6923
2023-05-12T13:19:43.302Z,616.6923
2023-05-12T13:20:45.233Z,611.6923
2023-05-12T13:21:47.137Z,609.4615
2023-05-12T13:22:49.062Z,612.8461
2023-05-12T13:23:51.127Z,616.3077
2023-05-12T13:24:52.899Z,609.8461
2023-05-12T13:25:54.800Z,609.4615
2023-05-12T13:26:56.745Z,608.9231
2023-05-12T13:27:58.640Z,608.8461
2023-05-12T13:29:00.567Z,719.8461
2023-05-12T13:30:02.597Z,701.0769
2023-05-12T13:31:04.438Z,648.8461
2023-05-12T13:32:06.323Z,624.9231
2023-05-12T13:33:08.307Z,621.2308
2023-05-12T13:34:10.169Z,617.5385
2023-05-12T13:35:12.071Z,616.0000
2023-05-12T13:36:14.104Z,613.6923
2023-05-12T13:37:15.922Z,611.3077
2023-05-12T13:38:17.831Z,608.1539
2023-05-12T13:39:19.911Z,606.0769
2023-05-12T13:40:21.659Z,608.4615
2023-05-12T13:41:23.626Z,609.4615
2023-05-12T13:42:25.608Z,606.3846
2023-05-12T13:43:27.431Z,603.6923
2023-05-12T13:44:29.332Z,603.6154
2023-05-12T13:45:31.270Z,603.1539
2023-05-12T13:46:33.225Z,601.7692
2023-05-12T13:47:35.137Z,605.4615
2023-05-12T13:48:37.159Z,602.4615
2023-05-12T13:49:38.929Z,600.3846
2023-05-12T13:50:40.859Z,600.2308
2023-05-12T13:51:42.768Z,601.3846
2023-05-12T13:52:44.669Z,605.0000
2023-05-12T13:53:46.607Z,606.8461
2023-05-12T13:54:48.625Z,607.3077
2023-05-12T13:55:50.500Z,609.2308
2023-05-12T13:56:52.335Z,605.0000
2023-05-12T13:57:54.250Z,601.5385
2023-05-12T13:58:56.191Z,599.3077
2023-05-12T13:59:58.219Z,598.1539
2023-05-12T14:01:00.007Z,597.0000
2023-05-12T14:02:02.099Z,597.1539
2023-05-12T14:03:03.904Z,594.8461
2023-05-12T14:04:05.781Z,591.9231
2023-05-12T14:05:07.797Z,590.0000
2023-05-12T14:06:09.731Z,592.0769
2023-05-12T14:07:11.525Z,593.9231
2023-05-12T14:08:13.426Z,593.8461
2023-05-12T14:09:15.372Z,591.4615
2023-05-12T14:10:17.272Z,588.6923
2023-05-12T14:11:19.266Z,586.1539
2023-05-12T14:12:21.739Z,584.3846
2023-05-12T14:13:23.021Z,581.6154
2023-05-12T14:14:24.962Z,579.8461
2023-05-12T14:15:40.103Z,576.6154
2023-05-12T14:16:28.804Z,573.9231
2023-05-12T14:17:30.863Z,569.3077
2023-05-12T14:18:32.661Z,564.9231
2023-05-12T14:19:34.547Z,559.6923
2023-05-12T14:20:36.451Z,560.3846
2023-05-12T14:21:38.392Z,559.4615
2023-05-12T14:22:40.307Z,553.6923
2023-05-12T14:23:42.335Z,551.6923
2023-05-12T14:24:44.127Z,551.9231
2023-05-12T14:25:46.070Z,552.0769
2023-05-12T14:26:48.048Z,549.1539
2023-05-12T14:27:50.123Z,547.6923
2023-05-12T14:28:51.820Z,544.9231
2023-05-12T14:29:53.898Z,541.8461
2023-05-12T14:30:55.673Z,532.5385
2023-05-12T14:31:57.638Z,529.0769
2023-05-12T14:32:59.528Z,523.9231
2023-05-12T14:34:01.436Z,516.6923
2023-05-12T14:35:03.335Z,510.3846
2023-05-12T14:36:07.831Z,502.2308
2023-05-12T14:37:07.283Z,493.7692
2023-05-12T14:38:09.106Z,490.0000
2023-05-12T14:39:11.028Z,486.0000
2023-05-12T14:40:12.924Z,479.3846
2023-05-12T14:41:14.858Z,473.7692
2023-05-12T14:42:16.870Z,471.6154
2023-05-12T14:43:18.700Z,467.5385
2023-05-12T14:44:20.625Z,465.9231
2023-05-12T14:45:22.848Z,463.3846
2023-05-12T14:46:24.472Z,460.0000
2023-05-12T14:47:26.383Z,456.6154
2023-05-12T14:48:28.385Z,456.6154
2023-05-12T14:49:30.241Z,454.3846
2023-05-12T14:50:32.135Z,453.2308
2023-05-12T14:51:34.042Z,451.0769
2023-05-12T14:52:35.956Z,449.8462
2023-05-12T14:53:37.976Z,445.4615
2023-05-12T14:54:39.812Z,443.6154
2023-05-12T14:55:41.728Z,444.0000
2023-05-12T14:56:43.671Z,444.6154
2023-05-12T14:57:45.552Z,442.6154
2023-05-12T14:58:47.474Z,442.9231
2023-05-12T14:59:49.503Z,442.3077
2023-05-12T15:00:51.354Z,444.5385
2023-05-12T15:01:53.247Z,443.3077
2023-05-12T15:02:55.233Z,442.0769
2023-05-12T15:03:57.068Z,439.6923
2023-05-12T15:04:59.097Z,441.5385
2023-05-12T15:07:02.845Z,440.4615
2023-05-12T15:08:04.761Z,441.0769
2023-05-12T15:09:06.681Z,439.6154
2023-05-12T15:10:08.599Z,436.5385
2023-05-12T15:11:10.605Z,434.5385
2023-05-12T15:12:12.467Z,433.0769
2023-05-12T15:13:14.365Z,433.3077
2023-05-12T15:14:16.291Z,434.7692
2023-05-12T15:15:18.355Z,436.6154
2023-05-12T15:16:20.265Z,438.5385
2023-05-12T15:17:22.057Z,436.6923
2023-05-12T15:18:24.058Z,434.5385
2023-05-12T15:19:25.904Z,434.6923
2023-05-12T15:20:27.814Z,432.6154
2023-05-12T15:21:29.744Z,431.7692
2023-05-12T15:22:31.669Z,432.0769
2023-05-12T15:23:33.576Z,431.6154
2023-05-12T15:24:35.482Z,432.0769
2023-05-12T15:25:37.409Z,432.9231
2023-05-12T15:26:40.249Z,432.6154
2023-05-12T15:27:41.254Z,431.7692
2023-05-12T15:28:43.178Z,430.4615
2023-05-12T15:29:45.079Z,430.6154
2023-05-12T15:30:47.025Z,433.0000
2023-05-12T15:31:49.028Z,432.8462
2023-05-12T15:32:50.881Z,432.4615
2023-05-12T15:33:52.794Z,430.3846
2023-05-12T15:34:54.762Z,427.6923
2023-05-12T15:35:56.604Z,427.2308
2023-05-12T15:36:58.541Z,427.6154
2023-05-12T15:38:00.466Z,428.7692
2023-05-12T15:39:02.427Z,428.9231
2023-05-12T15:40:04.313Z,426.3077
2023-05-12T15:41:06.216Z,425.0000
2023-05-12T15:42:08.539Z,424.2308
2023-05-12T15:43:10.054Z,426.3846
2023-05-12T15:44:11.969Z,424.8462
2023-05-12T15:45:13.899Z,423.1538
2023-05-12T15:46:15.835Z,425.4615
2023-05-12T15:47:17.721Z,425.9231
2023-05-12T15:48:19.691Z,424.3077
2023-05-12T15:49:21.639Z,426.3846
2023-05-12T15:50:23.550Z,427.6923
2023-05-12T15:51:25.485Z,428.7692
2023-05-12T15:52:27.405Z,429.4615
2023-05-12T15:53:29.322Z,430.7692
2023-05-12T15:54:31.264Z,432.2308
2023-05-12T15:55:33.169Z,433.7692
2023-05-12T15:56:35.087Z,435.0769
2023-05-12T15:57:36.998Z,436.7692
2023-05-12T15:58:38.933Z,432.3846
2023-05-12T15:59:40.859Z,430.8462
2023-05-12T16:00:42.795Z,432.3077
2023-05-12T16:01:44.683Z,431.8462
2023-05-12T16:02:46.670Z,430.6154
2023-05-12T16:03:48.575Z,431.6923
2023-05-12T16:04:50.462Z,429.0000
2023-05-12T16:05:52.361Z,430.6154
2023-05-12T16:06:54.359Z,429.3846
2023-05-12T16:07:56.188Z,429.5385
2023-05-12T16:08:58.125Z,428.5385
2023-05-12T16:10:00.065Z,427.6154
2023-05-12T16:11:01.990Z,427.0769
2023-05-12T16:12:03.888Z,427.2308
2023-05-12T16:13:05.789Z,430.3846
2023-05-12T16:14:07.711Z,430.3846
2023-05-12T16:15:09.659Z,433.2308
2023-05-12T16:16:11.572Z,436.3077
2023-05-12T16:17:13.491Z,437.3077
2023-05-12T16:18:15.450Z,436.7692
2023-05-12T16:19:17.314Z,433.7692
2023-05-12T16:20:19.248Z,432.3846
2023-05-12T16:21:21.170Z,432.9231
2023-05-12T16:22:23.090Z,434.6154
2023-05-12T16:23:25.001Z,434.3846
2023-05-12T16:24:26.911Z,434.0000
2023-05-12T16:25:28.844Z,431.7692
2023-05-12T16:26:30.768Z,432.3077
2023-05-12T16:27:32.681Z,435.6923
2023-05-12T16:28:34.609Z,434.6154
2023-05-12T16:29:36.534Z,432.3077
2023-05-12T16:30:38.458Z,431.6923
2023-05-12T16:31:40.402Z,432.9231
2023-05-12T16:32:42.334Z,433.3846
2023-05-12T16:33:44.217Z,433.1538
2023-05-12T16:34:46.124Z,434.8462
2023-05-12T16:35:48.044Z,434.6923
2023-05-12T16:36:49.964Z,431.2308
2023-05-12T16:37:51.898Z,433.6154
2023-05-12T16:38:53.836Z,434.8462
2023-05-12T16:39:55.728Z,431.6154
2023-05-12T16:40:57.657Z,429.4615
2023-05-12T16:41:59.574Z,428.9231
2023-05-12T16:43:01.505Z,427.0000
2023-05-12T16:44:03.428Z,426.3846
2023-05-12T16:45:05.360Z,425.7692
2023-05-12T16:46:07.281Z,427.0000
2023-05-12T16:47:09.186Z,429.6154
2023-05-12T16:48:11.121Z,432.1538
2023-05-12T16:49:13.039Z,430.6154
2023-05-12T16:50:14.959Z,429.6923
2023-05-12T16:51:16.877Z,429.4615
2023-05-12T16:52:18.792Z,428.9231
2023-05-12T16:53:20.712Z,428.7692
2023-05-12T16:54:22.798Z,429.3846
2023-05-12T16:55:24.538Z,426.8462
2023-05-12T16:56:26.512Z,427.7692
2023-05-12T16:57:28.396Z,428.0769
2023-05-12T16:58:30.316Z,427.2308
2023-05-12T16:59:32.240Z,426.6923
2023-05-12T17:00:34.140Z,427.2308
2023-05-12T17:01:36.169Z,426.5385
2023-05-12T17:02:38.058Z,426.3077
2023-05-12T17:03:40.030Z,427.0769
2023-05-12T17:04:41.808Z,426.8462
2023-05-12T17:05:43.730Z,429.6923
2023-05-12T17:06:45.654Z,429.3077
2023-05-12T17:07:47.622Z,431.0769
2023-05-12T17:08:49.518Z,429.6923
2023-05-12T17:09:51.426Z,426.2308
2023-05-12T17:10:53.342Z,425.4615
2023-05-12T17:11:55.251Z,421.0769
2023-05-12T17:12:57.185Z,422.4615
2023-05-12T17:13:59.119Z,423.6923
2023-05-12T17:15:07.638Z,425.3077
2023-05-12T17:16:02.972Z,423.5385
2023-05-12T17:17:04.886Z,423.4615
2023-05-12T17:18:06.884Z,422.6154
2023-05-12T17:20:10.616Z,425.0769
2023-05-12T17:21:12.542Z,426.6923
2023-05-12T17:22:14.466Z,424.9231
2023-05-12T17:23:16.382Z,424.0000
2023-05-12T17:24:18.294Z,427.0000
2023-05-12T17:25:20.426Z,426.9231
2023-05-12T17:26:22.143Z,425.6154
2023-05-12T17:27:24.067Z,426.5385
2023-05-12T17:28:25.982Z,426.3846
2023-05-12T17:29:27.886Z,423.6154
2023-05-12T17:30:29.804Z,425.0769
2023-05-12T17:31:31.790Z,427.6154
2023-05-12T17:32:33.726Z,427.7692
2023-05-12T17:33:35.578Z,426.9231
2023-05-12T17:34:37.496Z,426.6154
2023-05-12T17:35:39.416Z,428.6154
2023-05-12T17:36:41.324Z,428.3846
2023-05-12T17:37:43.281Z,427.8462
2023-05-12T17:38:45.183Z,426.0769
2023-05-12T17:39:47.084Z,425.6923
2023-05-12T17:40:49.012Z,422.7692
2023-05-12T17:41:50.933Z,423.0000
2023-05-12T17:42:52.966Z,426.7692
2023-05-12T17:43:54.770Z,426.3077
2023-05-12T17:44:56.699Z,425.2308
2023-05-12T17:45:58.599Z,426.5385
2023-05-12T17:47:00.542Z,427.3077
2023-05-12T17:48:02.517Z,426.0769
2023-05-12T17:49:04.371Z,426.6154
2023-05-12T17:50:06.295Z,426.3077
2023-05-12T17:51:08.198Z,426.1538
2023-05-12T17:52:10.117Z,426.1538
2023-05-12T17:53:12.033Z,422.7692
2023-05-12T17:54:13.954Z,425.2308
2023-05-12T17:55:15.873Z,427.3077
2023-05-12T17:56:17.809Z,425.8462
2023-05-12T17:57:19.704Z,425.6923
2023-05-12T17:58:21.628Z,427.3846
2023-05-12T17:59:23.551Z,424.8462
2023-05-12T18:00:25.462Z,424.1538
2023-05-12T18:01:27.469Z,425.0769
2023-05-12T18:02:29.452Z,425.6923
2023-05-12T18:03:31.266Z,426.8462
2023-05-12T18:04:33.153Z,427.1538
2023-05-12T18:05:36.506Z,428.6154
2023-05-12T18:06:36.989Z,428.6923
2023-05-12T18:07:38.908Z,428.3077
2023-05-12T18:08:40.834Z,425.6154
2023-05-12T18:09:42.730Z,424.4615
2023-05-12T18:10:44.663Z,427.0769
2023-05-12T18:11:46.587Z,421.5385
2023-05-12T18:12:48.511Z,422.4615
2023-05-12T18:13:50.403Z,423.6154
2023-05-12T18:14:52.337Z,423.6154
2023-05-12T18:15:54.266Z,422.6923
2023-05-12T18:16:56.230Z,421.1538
2023-05-12T18:17:58.118Z,421.2308
2023-05-12T18:19:00.014Z,425.8462
2023-05-12T18:20:01.920Z,424.9231
2023-05-12T18:21:03.857Z,423.6154
2023-05-12T18:22:05.746Z,422.4615
2023-05-12T18:23:07.685Z,424.4615
2023-05-12T18:24:09.576Z,422.3846
2023-05-12T18:25:11.508Z,424.1538
2023-05-12T18:26:13.464Z,425.7692
2023-05-12T18:27:15.362Z,426.5385
2023-05-12T18:28:17.254Z,427.5385
2023-05-12T18:29:19.170Z,429.4615
2023-05-12T18:30:21.113Z,428.3077
2023-05-12T18:31:23.046Z,428.8462
2023-05-12T18:32:26.312Z,428.6154
2023-05-12T18:33:26.857Z,426.4615
2023-05-12T18:34:28.754Z,428.6154
2023-05-12T18:35:30.676Z,428.4615
2023-05-12T18:36:32.620Z,426.8462
2023-05-12T18:37:34.522Z,429.6154
2023-05-12T18:38:36.454Z,428.6154
2023-05-12T18:39:38.372Z,427.7692
2023-05-12T18:40:40.270Z,427.4615
2023-05-12T18:41:42.180Z,426.3077
2023-05-12T18:42:44.158Z,424.8462
2023-05-12T18:43:46.048Z,428.8462
2023-05-12T18:44:47.943Z,428.3846
2023-05-12T18:45:49.871Z,426.0000
2023-05-12T18:46:51.839Z,425.1538
2023-05-12T18:47:53.716Z,425.1538
2023-05-12T18:48:55.646Z,423.2308
2023-05-12T18:49:57.555Z,424.0000
2023-05-12T18:50:59.463Z,425.4615
2023-05-12T18:52:01.399Z,426.6923
2023-05-12T18:53:03.320Z,427.6923
2023-05-12T18:54:05.235Z,430.2308
2023-05-12T18:55:07.176Z,431.0000
2023-05-12T18:56:09.064Z,430.6154
2023-05-12T18:57:10.993Z,429.4615
2023-05-12T18:58:12.898Z,430.6923
2023-05-12T18:59:14.838Z,431.0769
2023-05-12T19:00:16.758Z,440.6667
2023-05-12T19:01:18.738Z,437.3846
2023-05-12T19:02:20.600Z,435.1538
2023-05-12T19:03:22.503Z,430.6923
2023-05-12T19:04:24.431Z,431.1538
2023-05-12T19:05:26.387Z,428.1538
2023-05-12T19:06:28.281Z,428.1538
2023-05-12T19:07:30.216Z,430.9231
2023-05-12T19:08:32.103Z,429.7692
2023-05-12T19:09:34.027Z,431.3846
2023-05-12T19:10:38.611Z,430.3846
2023-05-12T19:11:37.874Z,430.1538
2023-05-12T19:12:39.805Z,429.0000
2023-05-12T19:13:41.718Z,428.0000
2023-05-12T19:14:43.629Z,424.3846
2023-05-12T19:15:45.596Z,421.9231
2023-05-12T19:16:47.544Z,425.0769
2023-05-12T19:17:49.420Z,429.3077
2023-05-12T19:18:51.400Z,434.0769
2023-05-12T19:19:53.235Z,434.0000
2023-05-12T19:20:55.139Z,434.7692
2023-05-12T19:21:57.060Z,436.0769
2023-05-12T19:22:58.998Z,433.1538
2023-05-12T19:24:00.905Z,431.2308
2023-05-12T19:25:02.825Z,432.2308
2023-05-12T19:26:04.724Z,433.6923
2023-05-12T19:27:06.640Z,434.3846
2023-05-12T19:28:08.607Z,433.9231
2023-05-12T19:29:10.514Z,434.1538
2023-05-12T19:30:12.415Z,435.3077
2023-05-12T19:31:14.323Z,432.6923
2023-05-12T19:32:16.339Z,431.0000
2023-05-12T19:33:18.199Z,432.0769
2023-05-12T19:34:20.100Z,434.6154
2023-05-12T19:35:22.205Z,431.6923
2023-05-12T19:36:23.925Z,431.3846
2023-05-12T19:37:25.849Z,432.0769
2023-05-12T19:38:27.741Z,434.3846
2023-05-12T19:39:29.677Z,434.1538
2023-05-12T19:40:31.711Z,433.6154
2023-05-12T19:41:33.510Z,433.3077
2023-05-12T19:42:35.414Z,433.2308
2023-05-12T19:43:37.337Z,431.7692
2023-05-12T19:44:39.285Z,431.2308
2023-05-12T19:45:41.200Z,432.3077
2023-05-12T19:46:43.103Z,435.3846
2023-05-12T19:47:45.020Z,434.8462
2023-05-12T19:48:46.922Z,433.5385
2023-05-12T19:49:48.854Z,436.4615
2023-05-12T19:50:50.786Z,435.2308
2023-05-12T19:51:52.689Z,431.2308
2023-05-12T19:52:54.606Z,431.1538
2023-05-12T19:53:56.605Z,435.4615
2023-05-12T19:54:58.511Z,436.6154
2023-05-12T19:56:00.456Z,435.3077
2023-05-12T19:57:02.385Z,432.6154
2023-05-12T19:58:04.291Z,433.6154
2023-05-12T19:59:06.207Z,433.3077
2023-05-12T20:00:08.120Z,434.8462
2023-05-12T20:01:10.054Z,436.7692
2023-05-12T20:02:11.970Z,437.7692
2023-05-12T20:03:13.918Z,436.6923
2023-05-12T20:04:15.790Z,435.3846
2023-05-12T20:05:17.765Z,435.9231
2023-05-12T20:06:19.621Z,435.7692
2023-05-12T20:07:21.548Z,431.9231
2023-05-12T20:08:23.475Z,430.3846
2023-05-12T20:09:25.372Z,432.3077
2023-05-12T20:10:27.302Z,433.4615
2023-05-12T20:11:29.200Z,433.6923
2023-05-12T20:12:31.140Z,434.3077
2023-05-12T20:13:33.056Z,434.1538
2023-05-12T20:14:34.978Z,432.5385
2023-05-12T20:15:36.874Z,433.1538
2023-05-12T20:16:38.820Z,431.8462
2023-05-12T20:17:40.803Z,436.1538
2023-05-12T20:18:42.676Z,437.0000
2023-05-12T20:19:44.556Z,436.0769
2023-05-12T20:20:46.461Z,436.1538
2023-05-12T20:21:48.382Z,433.1538
2023-05-12T20:22:50.308Z,432.0000
2023-05-12T20:23:52.230Z,431.7692
2023-05-12T20:24:54.149Z,431.3077
2023-05-12T20:25:56.082Z,431.5385
2023-05-12T20:26:57.966Z,431.3077
2023-05-12T20:27:59.919Z,431.2308
2023-05-12T20:29:01.835Z,431.3077
2023-05-12T20:30:03.736Z,433.8462
2023-05-12T20:31:05.778Z,435.6923
2023-05-12T20:32:07.570Z,434.6154
2023-05-12T20:33:09.500Z,436.0769
2023-05-12T20:34:11.405Z,437.0000
2023-05-12T20:35:13.327Z,436.4615
2023-05-12T20:36:15.224Z,436.9231
2023-05-12T20:37:17.156Z,435.6154
2023-05-12T20:38:19.066Z,435.3846
2023-05-12T20:39:20.983Z,435.5385
2023-05-12T20:40:22.903Z,435.2308
2023-05-12T20:41:24.806Z,435.1538
2023-05-12T20:42:26.733Z,435.7692
2023-05-12T20:43:28.650Z,434.5385
2023-05-12T20:44:30.571Z,434.6154
2023-05-12T20:45:32.473Z,436.6923
2023-05-12T20:46:36.437Z,437.0769
2023-05-12T20:47:36.456Z,434.2308
2023-05-12T20:48:38.229Z,430.4615
2023-05-12T20:49:40.149Z,431.6923
2023-05-12T20:50:42.084Z,433.7692
2023-05-12T20:51:43.967Z,432.7692
2023-05-12T20:52:45.904Z,432.6923
2023-05-12T20:53:47.794Z,432.6154
2023-05-12T20:54:49.718Z,432.2308
2023-05-12T20:55:51.633Z,431.3846
2023-05-12T20:56:53.562Z,433.0769
2023-05-12T20:57:55.471Z,431.2308
2023-05-12T20:58:57.377Z,431.9231
2023-05-12T20:59:59.298Z,434.0769
2023-05-12T21:01:01.229Z,435.5385
2023-05-12T21:02:03.207Z,434.3846
2023-05-12T21:03:12.216Z,436.2308
2023-05-12T21:04:16.527Z,439.5000
2023-05-12T21:05:18.620Z,439.1538
2023-05-12T21:06:20.348Z,436.2308
2023-05-12T21:07:22.262Z,435.5385
2023-05-12T21:08:24.159Z,433.1538
2023-05-12T21:09:26.104Z,432.6923
2023-05-12T21:10:28.002Z,433.6923
2023-05-12T21:11:29.905Z,433.2308
2023-05-12T21:12:31.835Z,431.4615
2023-05-12T21:13:33.772Z,435.0769
2023-05-12T21:14:35.670Z,432.3846
2023-05-12T21:15:37.581Z,433.4615
2023-05-12T21:16:39.634Z,433.4615
2023-05-12T21:17:41.566Z,434.6154
2023-05-12T21:18:43.385Z,432.6923
2023-05-12T21:19:45.276Z,430.9231
2023-05-12T21:20:47.240Z,433.0769
2023-05-12T21:21:49.097Z,432.4615
2023-05-12T21:22:51.025Z,433.9231
2023-05-12T21:23:52.996Z,433.1538
2023-05-12T21:24:54.850Z,433.6923
2023-05-12T21:25:56.770Z,434.3077
2023-05-12T21:26:58.704Z,433.5385
2023-05-12T21:28:00.605Z,434.9231
2023-05-12T21:29:02.572Z,435.1538
2023-05-12T21:30:04.457Z,432.4615
2023-05-12T21:31:06.355Z,435.1538
2023-05-12T21:32:08.599Z,436.8462
2023-05-12T21:33:10.286Z,436.0769
2023-05-12T21:34:12.178Z,434.7692
2023-05-12T21:35:14.033Z,435.4615
2023-05-12T21:36:15.965Z,434.6154
2023-05-12T21:37:17.869Z,433.6154
2023-05-12T21:38:19.804Z,433.6154
2023-05-12T21:39:21.728Z,434.2308
2023-05-12T21:40:23.706Z,437.3077
2023-05-12T21:41:25.548Z,439.1538
2023-05-12T21:42:27.496Z,440.5385
2023-05-12T21:43:29.406Z,440.2308
2023-05-12T21:44:31.332Z,440.0769
2023-05-12T21:45:33.244Z,440.7692
2023-05-12T21:46:35.271Z,438.2308
2023-05-12T21:47:37.114Z,435.7692
2023-05-12T21:48:38.984Z,436.0000
2023-05-12T21:49:40.918Z,440.1538
2023-05-12T21:50:42.835Z,440.8462
2023-05-12T21:51:44.751Z,440.0769
2023-05-12T21:52:46.705Z,438.1538
2023-05-12T21:53:48.593Z,436.6923
2023-05-12T21:54:50.525Z,437.3077
2023-05-12T21:55:52.428Z,436.3846
2023-05-12T21:56:54.346Z,436.3077
2023-05-12T21:57:56.253Z,436.5385
2023-05-12T21:58:58.218Z,436.7692
2023-05-12T22:00:00.126Z,439.6154
2023-05-12T22:01:02.021Z,439.9231
2023-05-12T22:02:03.948Z,439.9231
2023-05-12T22:03:05.896Z,437.9231
2023-05-12T22:04:07.817Z,437.1538
2023-05-12T22:05:09.758Z,437.3846
2023-05-12T22:06:11.623Z,436.3846
2023-05-12T22:07:13.517Z,436.6923
2023-05-12T22:08:15.447Z,437.0000
2023-05-12T22:09:17.361Z,436.8462
2023-05-12T22:10:19.452Z,437.3846
2023-05-12T22:11:21.229Z,438.4615
2023-05-12T22:12:23.116Z,440.4615
2023-05-12T22:13:25.023Z,440.4615
2023-05-12T22:14:26.936Z,440.3846
2023-05-12T22:15:28.870Z,439.4615
2023-05-12T22:16:40.680Z,441.2308
2023-05-12T22:17:32.750Z,441.7500
2023-05-12T22:18:34.679Z,439.5385
2023-05-12T22:19:36.536Z,440.6154
2023-05-12T22:20:38.453Z,442.1538
2023-05-12T22:21:40.379Z,441.7692
2023-05-12T22:22:42.339Z,440.9231
2023-05-12T22:23:44.220Z,437.4615
2023-05-12T22:24:46.134Z,438.6923
2023-05-12T22:25:48.032Z,438.8462
2023-05-12T22:26:49.970Z,439.9231
2023-05-12T22:27:51.871Z,440.0769
2023-05-12T22:28:53.836Z,440.2308
2023-05-12T22:29:55.721Z,440.0000
2023-05-12T22:30:57.665Z,443.4615
2023-05-12T22:31:59.551Z,443.3846
2023-05-12T22:33:01.584Z,444.3846
2023-05-12T22:34:03.384Z,445.0000
2023-05-12T22:35:05.339Z,444.2308
2023-05-12T22:36:07.243Z,443.8462
2023-05-12T22:37:09.146Z,442.9231
2023-05-12T22:38:11.094Z,443.8462
2023-05-12T22:39:13.001Z,443.8462
2023-05-12T22:40:14.905Z,444.9231
2023-05-12T22:41:16.825Z,445.7692
2023-05-12T22:42:18.763Z,446.9231
2023-05-12T22:43:20.659Z,447.9231
2023-05-12T22:44:22.596Z,448.3846
2023-05-12T22:45:24.520Z,444.4615
2023-05-12T22:46:26.480Z,444.8462
2023-05-12T22:47:28.348Z,443.3846
2023-05-12T22:48:32.099Z,442.2308
2023-05-12T22:49:32.191Z,445.5000
2023-05-12T22:50:34.098Z,445.4615
2023-05-12T22:51:36.025Z,446.6923
2023-05-12T22:52:37.944Z,446.0000
2023-05-12T22:53:39.864Z,450.6923
2023-05-12T22:54:41.781Z,449.0000
2023-05-12T22:55:43.701Z,446.9231
2023-05-12T22:56:45.629Z,446.6923
2023-05-12T22:57:47.538Z,448.3846
2023-05-12T22:58:49.470Z,444.4615
2023-05-12T22:59:51.371Z,445.1538
2023-05-12T23:00:53.330Z,446.3077
2023-05-12T23:01:55.221Z,445.2308
2023-05-12T23:02:57.191Z,446.3077
2023-05-12T23:03:59.068Z,446.0000
2023-05-12T23:05:00.963Z,445.0000
2023-05-12T23:06:02.908Z,445.2308
2023-05-12T23:07:05.903Z,445.5385
2023-05-12T23:08:06.764Z,445.5385
2023-05-12T23:09:08.635Z,445.5385
2023-05-12T23:10:10.578Z,446.0000
2023-05-12T23:11:12.491Z,446.7692
2023-05-12T23:12:14.404Z,445.3846
2023-05-12T23:13:16.370Z,441.6923
2023-05-12T23:14:18.288Z,441.6154
2023-05-12T23:15:20.171Z,442.1538
2023-05-12T23:16:22.093Z,443.6154
2023-05-12T23:17:23.994Z,443.0000
2023-05-12T23:18:25.946Z,441.0000
2023-05-12T23:19:27.837Z,441.3846
2023-05-12T23:20:29.752Z,442.8462
2023-05-12T23:21:31.694Z,442.0000
2023-05-12T23:22:33.605Z,443.2308
2023-05-12T23:23:35.520Z,439.5385
2023-05-12T23:24:37.444Z,439.9231
2023-05-12T23:25:39.371Z,440.5385
2023-05-12T23:26:41.262Z,444.6923
2023-05-12T23:27:43.199Z,447.3077
2023-05-12T23:28:45.473Z,447.1538
2023-05-12T23:29:47.024Z,447.2308
2023-05-12T23:30:48.949Z,449.6923
2023-05-12T23:31:50.930Z,448.4615
2023-05-12T23:32:52.950Z,446.0000
2023-05-12T23:33:54.782Z,444.0769
2023-05-12T23:34:56.632Z,445.6154
2023-05-12T23:35:58.579Z,448.1538
2023-05-12T23:37:00.462Z,447.5385
2023-05-12T23:38:02.398Z,448.6923
2023-05-12T23:39:04.312Z,445.1538
2023-05-12T23:40:06.213Z,443.0000
2023-05-12T23:41:08.142Z,444.4615
2023-05-12T23:42:10.066Z,444.8462
2023-05-12T23:43:11.969Z,446.6154
2023-05-12T23:44:13.898Z,444.8462
2023-05-12T23:45:15.844Z,446.3846
2023-05-12T23:46:17.786Z,446.9231
2023-05-12T23:47:19.650Z,448.3077
2023-05-12T23:48:21.580Z,446.4615
2023-05-12T23:49:23.529Z,446.5385
2023-05-12T23:50:25.412Z,446.3077